Time;durP1;ratioP1;P1;durP2;ratioP2;P2;SDS_P1;SDS_P2;PMS_P1;PMS_P2;Temp;Humidity;BMP_temperature;BMP_pressure;BME280_temperature;BME280_humidity;BME280_pressure;Samples;Min_cycle;Max_cycle;Signal;HPM_P1;HPM_P2
2021/12/06 00:02:13;;;;;;;;;;;;;;;11.77;46.42;98386.97;4456263;32;34104;-78
2021/12/06 00:04:41;;;;;;;;;;;;;;;12.02;45.66;98384.50;4472897;32;35221;-79
2021/12/06 00:07:10;;;;;;;;;;;;;;;11.99;45.88;98396.38;4452701;32;34545;-79
2021/12/06 00:09:37;;;;;;;;;;;;;;;11.84;45.97;98404.12;4458639;32;32945;-80
2021/12/06 00:12:05;;;;;;;;;;;;;;;12.10;45.46;98406.00;4474671;32;34484;-78
2021/12/06 00:14:35;;;;;;;;;;;;;;;12.17;45.17;98406.25;4451027;32;34531;-79
2021/12/06 00:17:06;;;;;;;;;;;;;;;11.87;46.19;98409.19;4453690;32;33898;-78
2021/12/06 00:19:34;;;;;;;;;;;;;;;12.20;44.93;98420.16;4457319;32;34373;-78
2021/12/06 00:22:03;;;;;;;;;;;;;;;12.06;45.64;98423.41;4464501;32;35236;-79
2021/12/06 00:24:31;;;;;;;;;;;;;;;11.99;45.50;98414.31;4455058;32;34993;-78
2021/12/06 00:26:59;;;;;;;;;;;;;;;11.17;48.13;98403.66;4467700;32;33537;-78
2021/12/06 00:29:26;;;;;;;;;;;;;;;10.40;49.77;98399.56;4450540;32;33915;-79
2021/12/06 00:31:53;;;;;;;;;;;;;;;10.33;50.31;98409.13;4450332;32;34295;-78
2021/12/06 00:34:22;;;;;;;;;;;;;;;10.63;49.73;98410.72;4470983;32;34716;-77
2021/12/06 00:37:15;;;;;;;;;;;;;;;11.01;48.56;98410.66;4467544;32;34558;-77
2021/12/06 00:39:48;;;;;;;;;;;;;;;10.96;48.88;98422.66;4471414;32;35185;-81
2021/12/06 00:42:15;;;;;;;;;;;;;;;11.28;47.98;98418.66;4451703;32;33582;-81
2021/12/06 00:44:43;;;;;;;;;;;;;;;10.90;49.09;98411.72;4451658;32;34340;-81
2021/12/06 00:47:11;;;;;;;;;;;;;;;11.11;48.30;98406.94;4456959;32;33413;-82
2021/12/06 00:49:39;;;;;;;;;;;;;;;11.13;48.61;98409.47;4452023;32;34181;-84
2021/12/06 00:52:07;;;;;;;;;;;;;;;11.30;48.22;98432.75;4450343;32;34269;-82
2021/12/06 00:54:35;;;;;;;;;;;;;;;11.03;48.72;98438.13;4433139;32;33259;-82
2021/12/06 00:57:07;;;;;;;;;;;;;;;11.08;48.63;98438.53;4452141;32;32043;-81
2021/12/06 00:59:35;;;;;;;;;;;;;;;11.25;48.31;98427.00;4453612;32;35218;-82
2021/12/06 01:02:03;;;;;;;;;;;;;;;10.99;48.92;98434.91;4462984;32;34325;-81
2021/12/06 01:04:32;;;;;;;;;;;;;;;11.35;47.67;98430.44;4465421;32;34624;-81
2021/12/06 01:07:00;;;;;;;;;;;;;;;11.35;47.32;98438.50;4470220;32;33351;-78
2021/12/06 01:09:27;;;;;;;;;;;;;;;11.45;47.08;98433.06;4457089;32;34196;-80
2021/12/06 01:11:54;;;;;;;;;;;;;;;11.33;47.83;98424.44;4454218;32;34103;-78
2021/12/06 01:14:22;;;;;;;;;;;;;;;11.28;48.09;98407.13;4467726;32;34215;-79
2021/12/06 01:16:52;;;;;;;;;;;;;;;11.19;48.41;98407.00;4456955;32;33757;-79
2021/12/06 01:19:20;;;;;;;;;;;;;;;11.51;47.18;98404.81;4467007;32;32691;-77
2021/12/06 01:22:03;;;;;;;;;;;;;;;11.26;48.29;98403.72;4471983;32;33416;-78
2021/12/06 01:24:39;;;;;;;;;;;;;;;11.33;47.79;98405.69;4468401;32;34301;-77
2021/12/06 01:29:47;;;;;;;;;;;;;;;11.06;48.91;98416.41;4454360;32;33958;-79
2021/12/06 01:32:26;;;;;;;;;;;;;;;11.30;47.56;98427.41;4470180;32;33138;-78
2021/12/06 01:40:09;;;;;;;;;;;;;;;11.29;47.06;98414.16;4430530;32;919132;-79
2021/12/06 01:42:36;;;;;;;;;;;;;;;10.48;49.34;98417.53;4461777;32;35092;-81
2021/12/06 01:45:05;;;;;;;;;;;;;;;10.77;49.20;98414.72;4455996;32;34320;-80
2021/12/06 01:47:33;;;;;;;;;;;;;;;10.77;48.32;98408.53;4462908;32;33385;-80
2021/12/06 01:50:06;;;;;;;;;;;;;;;10.98;48.03;98421.66;4448761;32;36356;-79
2021/12/06 01:52:38;;;;;;;;;;;;;;;10.93;48.03;98416.75;4478814;32;35284;-81
2021/12/06 01:55:07;;;;;;;;;;;;;;;11.02;47.62;98407.84;4458970;32;33993;-80
2021/12/06 01:57:34;;;;;;;;;;;;;;;10.70;48.07;98408.28;4463326;32;34592;-80
2021/12/06 02:00:25;;;;;;;;;;;;;;;10.33;48.48;98424.34;4468000;32;33909;-81
2021/12/06 02:02:53;;;;;;;;;;;;;;;10.61;47.91;98426.06;4456093;32;32580;-80
2021/12/06 02:05:22;;;;;;;;;;;;;;;10.15;48.97;98421.56;4437629;32;33816;-80
2021/12/06 02:07:50;;;;;;;;;;;;;;;9.75;50.36;98418.06;4458451;32;33595;-81
2021/12/06 02:10:18;;;;;;;;;;;;;;;9.90;49.51;98420.31;4451234;32;33876;-81
2021/12/06 02:12:48;;;;;;;;;;;;;;;9.98;49.23;98409.75;4461157;32;34365;-80
2021/12/06 02:15:41;;;;;;;;;;;;;;;10.08;48.78;98407.91;4453732;32;34450;-81
2021/12/06 02:18:15;;;;;;;;;;;;;;;9.97;49.39;98413.41;4464327;32;33596;-81
2021/12/06 02:20:50;;;;;;;;;;;;;;;9.84;49.46;98403.03;4475342;32;35580;-81
2021/12/06 02:23:18;;;;;;;;;;;;;;;10.24;47.91;98402.81;4469405;32;34069;-81
2021/12/06 02:25:45;;;;;;;;;;;;;;;9.98;49.00;98393.72;4464678;32;33454;-81
2021/12/06 02:28:13;;;;;;;;;;;;;;;10.15;48.74;98392.97;4473186;32;33286;-80
2021/12/06 02:30:40;;;;;;;;;;;;;;;10.22;48.14;98407.44;4468775;32;33585;-81
2021/12/06 02:33:08;;;;;;;;;;;;;;;10.34;47.76;98397.47;4458727;32;34318;-79
2021/12/06 02:35:36;;;;;;;;;;;;;;;10.17;48.78;98400.84;4455104;32;34244;-80
2021/12/06 02:38:07;;;;;;;;;;;;;;;10.43;47.81;98404.62;4464139;32;33676;-80
2021/12/06 02:40:36;;;;;;;;;;;;;;;10.12;48.86;98408.47;4443343;32;32790;-81
2021/12/06 02:43:05;;;;;;;;;;;;;;;10.48;47.46;98405.00;4443797;32;34245;-80
2021/12/06 02:45:32;;;;;;;;;;;;;;;10.54;47.51;98406.25;4447380;32;33898;-80
2021/12/06 02:48:00;;;;;;;;;;;;;;;10.12;48.62;98413.81;4442958;32;34500;-79
2021/12/06 02:50:32;;;;;;;;;;;;;;;9.82;49.56;98420.19;4447080;32;34292;-80
2021/12/06 02:52:59;;;;;;;;;;;;;;;10.32;48.23;98409.28;4434031;32;34370;-84
2021/12/06 02:55:34;;;;;;;;;;;;;;;10.18;48.15;98418.59;4447705;32;33525;-83
2021/12/06 02:58:14;;;;;;;;;;;;;;;10.69;47.48;98411.97;4442272;32;33220;-83
2021/12/06 03:00:47;;;;;;;;;;;;;;;10.62;47.20;98418.88;4431144;32;34248;-83
2021/12/06 03:03:16;;;;;;;;;;;;;;;10.81;46.80;98428.66;4441381;32;34381;-83
2021/12/06 03:05:44;;;;;;;;;;;;;;;10.79;47.25;98428.81;4445689;32;34133;-83
2021/12/06 03:08:12;;;;;;;;;;;;;;;10.93;45.51;98439.03;4444756;32;33745;-83
2021/12/06 03:10:39;;;;;;;;;;;;;;;10.72;46.14;98433.06;4421575;32;34313;-82
2021/12/06 03:13:07;;;;;;;;;;;;;;;10.35;47.36;98433.06;4447322;32;34282;-84
2021/12/06 03:15:34;;;;;;;;;;;;;;;10.01;48.38;98426.34;4437789;32;35350;-75
2021/12/06 03:18:02;;;;;;;;;;;;;;;10.37;47.46;98423.03;4445484;32;33577;-74
2021/12/06 03:20:29;;;;;;;;;;;;;;;10.89;45.87;98416.22;4445240;32;34328;-74
2021/12/06 03:22:57;;;;;;;;;;;;;;;10.61;47.07;98423.41;4441820;32;34344;-74
2021/12/06 03:25:25;;;;;;;;;;;;;;;10.45;47.59;98425.84;4437917;32;34107;-75
2021/12/06 03:27:53;;;;;;;;;;;;;;;10.33;47.65;98433.19;4439500;32;34001;-75
2021/12/06 03:30:20;;;;;;;;;;;;;;;10.66;47.54;98434.50;4444463;32;33846;-75
2021/12/06 03:32:48;;;;;;;;;;;;;;;11.03;45.62;98430.09;4437959;32;35196;-75
2021/12/06 03:35:15;;;;;;;;;;;;;;;10.99;45.22;98434.06;4436765;32;34225;-75
2021/12/06 03:37:43;;;;;;;;;;;;;;;10.46;47.94;98430.19;4438963;32;34547;-75
2021/12/06 03:40:11;;;;;;;;;;;;;;;11.06;45.35;98440.50;4446098;32;34183;-74
2021/12/06 03:42:38;;;;;;;;;;;;;;;11.04;45.68;98442.47;4452762;32;33286;-73
2021/12/06 03:45:08;;;;;;;;;;;;;;;10.96;46.75;98445.91;4458243;32;34478;-73
2021/12/06 03:47:36;;;;;;;;;;;;;;;11.01;45.61;98450.81;4455183;32;35598;-72
2021/12/06 03:50:04;;;;;;;;;;;;;;;11.07;45.42;98450.22;4458291;32;35127;-72
2021/12/06 03:52:31;;;;;;;;;;;;;;;10.88;45.92;98432.41;4459249;32;35180;-71
2021/12/06 03:54:59;;;;;;;;;;;;;;;11.15;44.90;98439.63;4452324;32;33992;-73
2021/12/06 03:57:26;;;;;;;;;;;;;;;10.77;46.16;98430.78;4458693;32;32440;-74
2021/12/06 03:59:54;;;;;;;;;;;;;;;10.64;46.08;98431.13;4449947;32;34724;-74
2021/12/06 04:02:23;;;;;;;;;;;;;;;10.76;46.75;98438.97;4461351;32;34360;-72
2021/12/06 04:04:51;;;;;;;;;;;;;;;10.97;46.46;98431.53;4456247;32;34285;-72
2021/12/06 04:07:19;;;;;;;;;;;;;;;10.31;46.75;98439.69;4456575;32;33622;-72
2021/12/06 04:09:46;;;;;;;;;;;;;;;10.99;45.03;98437.59;4456374;32;34175;-72
2021/12/06 04:12:15;;;;;;;;;;;;;;;11.05;45.14;98434.31;4457561;32;33612;-72
2021/12/06 04:14:43;;;;;;;;;;;;;;;11.09;45.28;98432.19;4455430;32;34235;-72
2021/12/06 04:17:12;;;;;;;;;;;;;;;11.07;44.90;98426.13;4450846;32;33308;-72
2021/12/06 04:19:41;;;;;;;;;;;;;;;11.07;45.01;98424.28;4451142;32;33930;-72
2021/12/06 04:22:09;;;;;;;;;;;;;;;10.59;46.15;98432.56;4455525;32;35347;-71
2021/12/06 04:24:36;;;;;;;;;;;;;;;10.75;45.67;98435.44;4454780;32;35136;-70
2021/12/06 04:27:13;;;;;;;;;;;;;;;10.58;46.29;98445.09;4462154;32;34594;-74
2021/12/06 04:29:42;;;;;;;;;;;;;;;10.53;46.33;98446.50;4457888;32;33974;-75
2021/12/06 04:32:10;;;;;;;;;;;;;;;10.15;47.18;98445.63;4458086;32;34725;-74
2021/12/06 04:34:38;;;;;;;;;;;;;;;10.07;47.31;98453.50;4455321;32;35340;-75
2021/12/06 04:37:05;;;;;;;;;;;;;;;10.14;47.58;98452.75;4456268;32;32379;-75
2021/12/06 04:39:33;;;;;;;;;;;;;;;9.90;48.07;98453.22;4452720;32;33907;-75
2021/12/06 04:42:01;;;;;;;;;;;;;;;9.75;48.78;98455.47;4449400;32;35304;-75
2021/12/06 04:44:29;;;;;;;;;;;;;;;10.38;46.67;98447.00;4455437;32;34478;-75
2021/12/06 04:46:57;;;;;;;;;;;;;;;10.42;46.49;98439.50;4458699;32;33505;-76
2021/12/06 04:49:27;;;;;;;;;;;;;;;10.35;46.58;98455.31;4453115;32;34282;-74
2021/12/06 04:51:56;;;;;;;;;;;;;;;10.54;46.34;98461.59;4451546;32;34308;-74
2021/12/06 04:54:25;;;;;;;;;;;;;;;10.19;46.89;98468.41;4456416;32;33327;-75
2021/12/06 04:56:57;;;;;;;;;;;;;;;10.47;46.74;98472.88;4459930;32;33703;-74
2021/12/06 04:59:36;;;;;;;;;;;;;;;9.71;49.33;98464.75;4452737;32;34268;-74
2021/12/06 05:02:24;;;;;;;;;;;;;;;9.93;48.27;98469.00;4447933;32;33640;-74
2021/12/06 05:04:53;;;;;;;;;;;;;;;9.98;47.28;98466.75;4448349;32;34519;-76
2021/12/06 05:07:26;;;;;;;;;;;;;;;9.61;49.16;98479.94;4455805;32;33751;-74
2021/12/06 05:09:53;;;;;;;;;;;;;;;9.92;48.09;98472.66;4449855;32;33943;-74
2021/12/06 05:12:22;;;;;;;;;;;;;;;10.44;46.53;98480.34;4449258;32;34376;-74
2021/12/06 05:14:49;;;;;;;;;;;;;;;9.84;47.70;98483.19;4453000;32;34420;-76
2021/12/06 05:17:17;;;;;;;;;;;;;;;9.55;49.83;98481.34;4449574;32;33115;-76
2021/12/06 05:19:44;;;;;;;;;;;;;;;10.14;47.85;98490.19;4456947;32;34998;-76
2021/12/06 05:22:12;;;;;;;;;;;;;;;10.33;47.55;98497.38;4451411;32;34310;-76
2021/12/06 05:24:40;;;;;;;;;;;;;;;10.34;47.02;98499.09;4451385;32;34351;-73
2021/12/06 05:27:07;;;;;;;;;;;;;;;10.25;47.61;98494.56;4448451;32;33493;-74
2021/12/06 05:29:35;;;;;;;;;;;;;;;9.93;48.37;98500.22;4453892;32;32380;-75
2021/12/06 05:32:04;;;;;;;;;;;;;;;10.47;47.08;98502.31;4448670;32;34394;-75
2021/12/06 05:34:37;;;;;;;;;;;;;;;10.76;46.24;98493.34;4450486;32;34518;-76
2021/12/06 05:37:06;;;;;;;;;;;;;;;10.85;46.07;98496.94;4453097;32;32303;-76
2021/12/06 05:39:33;;;;;;;;;;;;;;;10.81;46.34;98487.53;4447173;32;34746;-77
2021/12/06 05:42:02;;;;;;;;;;;;;;;11.24;44.87;98486.09;4457900;32;34262;-77
2021/12/06 05:44:30;;;;;;;;;;;;;;;11.45;44.18;98496.53;4463768;32;34555;-79
2021/12/06 05:46:57;;;;;;;;;;;;;;;11.65;43.29;98485.53;4471793;32;33576;-79
2021/12/06 05:49:25;;;;;;;;;;;;;;;11.62;44.09;98490.34;4451201;32;34282;-79
2021/12/06 05:51:53;;;;;;;;;;;;;;;11.68;44.15;98497.78;4471770;32;35445;-79
2021/12/06 05:54:21;;;;;;;;;;;;;;;11.64;43.73;98499.91;4459471;32;33320;-74
2021/12/06 05:56:48;;;;;;;;;;;;;;;11.81;42.62;98495.59;4454688;32;34437;-75
2021/12/06 05:59:16;;;;;;;;;;;;;;;11.34;44.21;98503.78;4452895;32;35146;-76
2021/12/06 06:01:45;;;;;;;;;;;;;;;11.54;44.36;98509.03;4470814;32;35421;-77
2021/12/06 06:04:13;;;;;;;;;;;;;;;11.79;43.08;98499.41;4467194;32;33146;-76
2021/12/06 06:06:40;;;;;;;;;;;;;;;11.80;43.58;98512.63;4470258;32;34497;-76
2021/12/06 06:09:08;;;;;;;;;;;;;;;11.38;43.61;98515.03;4471281;32;33761;-76
2021/12/06 06:11:35;;;;;;;;;;;;;;;11.51;43.77;98534.28;4452880;32;34219;-76
2021/12/06 06:14:03;;;;;;;;;;;;;;;11.51;43.51;98538.81;4471267;32;35255;-76
2021/12/06 06:16:35;;;;;;;;;;;;;;;11.23;45.14;98540.63;4452818;32;33711;-76
2021/12/06 06:19:03;;;;;;;;;;;;;;;11.03;45.70;98539.88;4465561;32;35090;-76
2021/12/06 06:21:30;;;;;;;;;;;;;;;10.87;45.82;98535.13;4455152;32;34417;-77
2021/12/06 06:23:58;;;;;;;;;;;;;;;11.29;44.93;98542.72;4452945;32;34486;-76
2021/12/06 06:26:26;;;;;;;;;;;;;;;11.09;44.78;98544.66;4472539;32;34658;-76
2021/12/06 06:28:53;;;;;;;;;;;;;;;11.82;42.95;98545.50;4456510;32;34820;-76
2021/12/06 06:31:20;;;;;;;;;;;;;;;12.03;42.71;98547.06;4469576;32;32565;-76
2021/12/06 06:33:48;;;;;;;;;;;;;;;12.17;41.85;98543.03;4456508;32;35096;-75
2021/12/06 06:36:15;;;;;;;;;;;;;;;11.86;42.92;98544.25;4468538;32;33573;-75
2021/12/06 06:38:43;;;;;;;;;;;;;;;11.96;43.13;98552.22;4453201;32;35003;-75
2021/12/06 06:41:10;;;;;;;;;;;;;;;11.82;44.14;98555.41;4468679;32;34290;-75
2021/12/06 06:43:37;;;;;;;;;;;;;;;11.77;42.63;98558.50;4453523;32;33974;-75
2021/12/06 06:46:05;;;;;;;;;;;;;;;11.32;44.35;98563.84;4465262;32;33198;-75
2021/12/06 06:48:33;;;;;;;;;;;;;;;11.60;44.16;98562.03;4457333;32;33712;-75
2021/12/06 06:51:00;;;;;;;;;;;;;;;11.61;43.85;98569.91;4470269;32;35396;-76
2021/12/06 06:53:27;;;;;;;;;;;;;;;11.34;44.33;98575.28;4455028;32;35067;-76
2021/12/06 06:55:56;;;;;;;;;;;;;;;11.34;44.10;98576.13;4455606;32;33133;-76
2021/12/06 06:58:24;;;;;;;;;;;;;;;10.92;46.24;98587.25;4457034;32;33895;-75
2021/12/06 07:00:51;;;;;;;;;;;;;;;10.69;46.72;98594.78;4452731;32;34183;-75
2021/12/06 07:03:19;;;;;;;;;;;;;;;10.44;46.89;98598.87;4455700;32;34435;-76
2021/12/06 07:05:46;;;;;;;;;;;;;;;10.43;47.30;98599.88;4470157;32;33639;-76
2021/12/06 07:08:14;;;;;;;;;;;;;;;10.59;46.96;98603.78;4469304;32;35211;-76
2021/12/06 07:10:41;;;;;;;;;;;;;;;10.82;46.20;98609.66;4457714;32;33174;-76
2021/12/06 07:13:11;;;;;;;;;;;;;;;10.46;47.51;98614.78;4477420;32;34402;-76
2021/12/06 07:15:38;;;;;;;;;;;;;;;10.86;46.60;98619.13;4456802;32;33655;-76
2021/12/06 07:18:06;;;;;;;;;;;;;;;11.40;44.51;98621.06;4468725;32;34097;-77
2021/12/06 07:20:34;;;;;;;;;;;;;;;10.60;46.55;98630.41;4457346;32;33071;-76
2021/12/06 07:23:03;;;;;;;;;;;;;;;10.80;45.79;98631.22;4461008;32;34248;-76
2021/12/06 07:25:31;;;;;;;;;;;;;;;11.12;45.71;98627.38;4456446;32;32563;-76
2021/12/06 07:27:58;;;;;;;;;;;;;;;11.53;44.34;98628.78;4458410;32;34292;-76
2021/12/06 07:30:26;;;;;;;;;;;;;;;11.56;44.77;98627.63;4473413;32;35337;-76
2021/12/06 07:32:54;;;;;;;;;;;;;;;10.94;46.06;98633.44;4468278;32;34563;-76
2021/12/06 07:35:22;;;;;;;;;;;;;;;11.86;43.70;98631.88;4458681;32;33839;-76
2021/12/06 07:37:50;;;;;;;;;;;;;;;11.69;44.22;98640.69;4459680;32;34932;-76
2021/12/06 07:40:18;;;;;;;;;;;;;;;11.63;44.61;98632.25;4456962;32;34069;-76
2021/12/06 07:42:45;;;;;;;;;;;;;;;11.83;43.84;98635.66;4469859;32;34263;-76
2021/12/06 07:45:13;;;;;;;;;;;;;;;11.06;46.10;98644.84;4452046;32;33383;-76
2021/12/06 07:47:41;;;;;;;;;;;;;;;11.63;44.19;98639.44;4470741;32;34265;-76
2021/12/06 07:50:09;;;;;;;;;;;;;;;11.87;43.71;98646.97;4460313;32;34754;-76
2021/12/06 07:52:37;;;;;;;;;;;;;;;11.64;44.04;98643.81;4472732;32;34587;-76
2021/12/06 07:55:05;;;;;;;;;;;;;;;11.83;43.93;98643.72;4471332;32;32434;-76
2021/12/06 07:57:33;;;;;;;;;;;;;;;10.98;46.06;98647.41;4478279;32;33650;-75
2021/12/06 08:00:01;;;;;;;;;;;;;;;11.04;45.83;98644.13;4476252;32;33122;-76
2021/12/06 08:02:32;;;;;;;;;;;;;;;10.79;46.37;98650.13;4456694;32;34473;-76
2021/12/06 08:05:29;;;;;;;;;;;;;;;10.49;48.05;98655.47;4476592;32;33533;-76
2021/12/06 08:07:47;;;;;;;;;;;;;;;11.08;46.22;98650.06;4475494;32;34219;-76
2021/12/06 08:10:15;;;;;;;;;;;;;;;10.59;47.54;98651.94;4463306;32;34367;-76
2021/12/06 08:12:42;;;;;;;;;;;;;;;10.90;47.35;98655.31;4461385;32;34419;-76
2021/12/06 08:15:10;;;;;;;;;;;;;;;10.68;47.08;98656.47;4473438;32;33438;-76
2021/12/06 08:17:37;;;;;;;;;;;;;;;11.35;45.55;98654.63;4478056;32;34323;-76
2021/12/06 08:20:05;;;;;;;;;;;;;;;11.36;45.38;98649.16;4474032;32;34452;-76
2021/12/06 08:22:32;;;;;;;;;;;;;;;10.87;46.81;98664.47;4475402;32;35726;-76
2021/12/06 08:25:00;;;;;;;;;;;;;;;11.59;44.71;98662.19;4474658;32;34441;-76
2021/12/06 08:27:27;;;;;;;;;;;;;;;10.94;47.49;98665.56;4470776;32;34982;-76
2021/12/06 08:29:55;;;;;;;;;;;;;;;11.42;45.46;98666.44;4471621;32;33345;-76
2021/12/06 08:32:22;;;;;;;;;;;;;;;11.13;46.23;98677.25;4475158;32;35378;-76
2021/12/06 08:34:50;;;;;;;;;;;;;;;10.60;47.59;98686.62;4476692;32;32502;-76
2021/12/06 08:37:17;;;;;;;;;;;;;;;10.70;47.04;98678.59;4474739;32;34250;-76
2021/12/06 08:39:45;;;;;;;;;;;;;;;10.52;49.38;98688.28;4473517;32;35214;-76
2021/12/06 08:42:12;;;;;;;;;;;;;;;10.78;47.67;98689.41;4467696;32;35343;-76
2021/12/06 08:44:39;;;;;;;;;;;;;;;11.52;45.77;98693.22;4478136;32;33651;-76
2021/12/06 08:47:07;;;;;;;;;;;;;;;11.18;46.32;98691.91;4476734;32;32788;-75
2021/12/06 08:49:34;;;;;;;;;;;;;;;11.02;47.02;98704.19;4471982;32;34977;-75
2021/12/06 08:52:02;;;;;;;;;;;;;;;10.64;48.22;98703.22;4458858;32;35121;-76
2021/12/06 08:54:30;;;;;;;;;;;;;;;10.54;48.38;98699.72;4477779;32;33645;-75
2021/12/06 08:56:59;;;;;;;;;;;;;;;10.12;49.65;98699.91;4471564;32;35318;-74
2021/12/06 08:59:26;;;;;;;;;;;;;;;10.34;49.41;98699.69;4470827;32;34190;-75
2021/12/06 09:01:54;;;;;;;;;;;;;;;10.82;47.73;98704.22;4460618;32;34358;-75
2021/12/06 09:04:43;;;;;;;;;;;;;;;11.30;45.94;98705.13;4474964;32;33748;-74
2021/12/06 09:07:13;;;;;;;;;;;;;;;11.05;48.07;98691.38;4476039;32;34139;-75
2021/12/06 09:09:46;;;;;;;;;;;;;;;10.89;47.58;98699.16;4459566;32;35389;-75
2021/12/06 09:12:18;;;;;;;;;;;;;;;10.37;48.82;98691.38;4476279;32;34552;-75
2021/12/06 09:14:45;;;;;;;;;;;;;;;10.67;48.66;98702.94;4475888;32;32529;-75
2021/12/06 09:17:12;;;;;;;;;;;;;;;10.94;47.33;98687.00;4475558;32;33393;-75
2021/12/06 09:19:40;;;;;;;;;;;;;;;11.28;46.72;98681.16;4462951;32;33019;-75
2021/12/06 09:22:08;;;;;;;;;;;;;;;11.49;46.56;98674.75;4476100;32;35377;-75
2021/12/06 09:24:35;;;;;;;;;;;;;;;10.42;48.62;98670.41;4472920;32;34577;-75
2021/12/06 09:27:03;;;;;;;;;;;;;;;10.62;48.71;98673.06;4472905;32;34944;-76
2021/12/06 09:29:32;;;;;;;;;;;;;;;10.99;48.06;98670.53;4480147;32;34783;-74
2021/12/06 09:32:00;;;;;;;;;;;;;;;10.78;48.08;98662.63;4461862;32;34505;-75
2021/12/06 09:34:28;;;;;;;;;;;;;;;10.37;49.42;98667.31;4477922;32;34318;-75
2021/12/06 09:36:55;;;;;;;;;;;;;;;10.90;48.70;98661.50;4475771;32;33555;-75
2021/12/06 09:39:22;;;;;;;;;;;;;;;10.54;49.12;98659.56;4463588;32;34093;-75
2021/12/06 09:41:50;;;;;;;;;;;;;;;10.99;48.20;98664.31;4475527;32;33115;-75
2021/12/06 09:44:18;;;;;;;;;;;;;;;10.36;49.62;98664.75;4478613;32;34501;-75
2021/12/06 09:46:45;;;;;;;;;;;;;;;10.06;49.58;98661.19;4462914;32;35014;-75
2021/12/06 09:49:15;;;;;;;;;;;;;;;10.82;48.17;98666.75;4469625;32;35212;-75
2021/12/06 09:51:44;;;;;;;;;;;;;;;10.86;48.01;98664.63;4474711;32;33096;-75
2021/12/06 09:54:12;;;;;;;;;;;;;;;11.41;47.56;98667.47;4464426;32;33241;-75
2021/12/06 09:56:41;;;;;;;;;;;;;;;10.47;49.15;98662.81;4462888;32;33950;-75
2021/12/06 09:59:10;;;;;;;;;;;;;;;10.78;49.37;98656.44;4463599;32;35303;-76
2021/12/06 10:01:39;;;;;;;;;;;;;;;10.55;49.23;98653.22;4455977;32;35175;-75
2021/12/06 10:04:09;;;;;;;;;;;;;;;9.98;50.54;98648.50;4474723;32;33759;-75
2021/12/06 10:06:36;;;;;;;;;;;;;;;10.10;51.52;98643.87;4465427;32;35548;-75
2021/12/06 10:09:05;;;;;;;;;;;;;;;9.44;53.40;98633.72;4477580;32;34459;-76
2021/12/06 10:11:33;;;;;;;;;;;;;;;9.56;52.39;98640.62;4470903;32;34319;-76
2021/12/06 10:14:00;;;;;;;;;;;;;;;10.54;49.33;98632.81;4478505;32;33730;-76
2021/12/06 10:16:28;;;;;;;;;;;;;;;10.66;49.24;98629.00;4476289;32;34244;-77
2021/12/06 10:18:56;;;;;;;;;;;;;;;10.45;49.88;98634.50;4476273;32;34411;-76
2021/12/06 10:21:24;;;;;;;;;;;;;;;11.21;47.79;98639.06;4471705;32;32955;-77
2021/12/06 10:23:51;;;;;;;;;;;;;;;11.11;48.75;98642.59;4464845;32;34313;-76
2021/12/06 10:26:21;;;;;;;;;;;;;;;11.40;47.36;98631.78;4482383;32;34296;-76
2021/12/06 10:28:48;;;;;;;;;;;;;;;11.78;46.28;98629.94;4464010;32;34291;-76
2021/12/06 10:31:16;;;;;;;;;;;;;;;10.67;48.96;98633.38;4470138;32;34310;-76
2021/12/06 10:33:45;;;;;;;;;;;;;;;10.69;49.73;98631.41;4469505;32;34444;-76
2021/12/06 10:36:15;;;;;;;;;;;;;;;9.71;52.14;98632.25;4468649;32;34168;-77
2021/12/06 10:38:49;;;;;;;;;;;;;;;11.03;48.88;98642.47;4468614;32;34198;-76
2021/12/06 10:41:17;;;;;;;;;;;;;;;11.07;48.72;98654.56;4468705;32;35408;-77
2021/12/06 10:43:57;;;;;;;;;;;;;;;10.70;49.24;98659.84;4460628;32;32519;-75
2021/12/06 10:46:25;;;;;;;;;;;;;;;10.52;49.99;98677.59;4468714;32;35281;-75
2021/12/06 10:48:53;;;;;;;;;;;;;;;11.00;49.29;98688.25;4463204;32;35424;-75
2021/12/06 10:51:23;;;;;;;;;;;;;;;10.91;48.58;98698.03;4469149;32;35075;-74
2021/12/06 10:54:17;;;;;;;;;;;;;;;10.23;50.04;98710.47;4480476;32;33203;-76
2021/12/06 10:56:47;;;;;;;;;;;;;;;10.22;50.43;98712.28;4465781;32;34390;-76
2021/12/06 10:59:25;;;;;;;;;;;;;;;11.34;48.12;98714.56;4468078;32;34248;-75
2021/12/06 11:01:54;;;;;;;;;;;;;;;10.51;49.87;98719.56;4456990;32;33857;-76
2021/12/06 11:04:25;;;;;;;;;;;;;;;11.04;48.82;98721.78;4473410;32;35388;-74
2021/12/06 11:06:53;;;;;;;;;;;;;;;10.89;49.67;98725.91;4470569;32;35018;-73
2021/12/06 11:09:20;;;;;;;;;;;;;;;11.52;48.27;98715.50;4482038;32;34401;-74
2021/12/06 11:11:50;;;;;;;;;;;;;;;11.11;48.45;98708.72;4478039;32;34454;-75
2021/12/06 11:14:20;;;;;;;;;;;;;;;11.32;47.90;98708.50;4455093;32;33623;-77
2021/12/06 11:17:18;;;;;;;;;;;;;;;11.83;46.75;98709.88;4456923;32;35343;-78
2021/12/06 11:19:47;;;;;;;;;;;;;;;12.19;46.69;98723.44;4459284;32;33845;-79
2021/12/06 11:22:18;;;;;;;;;;;;;;;12.60;44.58;98722.03;4473718;32;34206;-79
2021/12/06 11:24:48;;;;;;;;;;;;;;;12.81;44.16;98725.28;4460327;32;33480;-78
2021/12/06 11:27:22;;;;;;;;;;;;;;;12.47;45.04;98729.63;4455940;32;34189;-75
2021/12/06 11:30:03;;;;;;;;;;;;;;;12.33;44.50;98725.63;4469325;32;35256;-78
2021/12/06 11:32:32;;;;;;;;;;;;;;;11.80;46.43;98735.16;4456446;32;34460;-81
2021/12/06 11:35:06;;;;;;;;;;;;;;;12.61;44.17;98744.34;4470548;32;33721;-81
2021/12/06 11:37:35;;;;;;;;;;;;;;;12.03;45.47;98738.31;4459989;32;35168;-86
2021/12/06 11:40:03;;;;;;;;;;;;;;;12.10;44.78;98741.25;4447385;32;34001;-86
2021/12/06 11:42:30;;;;;;;;;;;;;;;12.19;44.99;98739.53;4473941;32;34528;-85
2021/12/06 11:44:58;;;;;;;;;;;;;;;13.12;43.28;98742.81;4462890;32;33500;-86
2021/12/06 11:47:25;;;;;;;;;;;;;;;12.16;45.16;98743.34;4465890;32;33537;-86
2021/12/06 11:49:54;;;;;;;;;;;;;;;13.12;43.48;98742.81;4445333;32;34258;-85
2021/12/06 11:52:23;;;;;;;;;;;;;;;13.14;42.88;98738.97;4435302;32;33438;-84
2021/12/06 11:54:58;;;;;;;;;;;;;;;11.86;46.22;98742.63;4444744;32;34530;-85
2021/12/06 11:57:53;;;;;;;;;;;;;;;13.00;43.21;98744.88;4428775;32;33064;-85
2021/12/06 12:00:21;;;;;;;;;;;;;;;12.19;45.27;98740.38;4468613;32;32830;-84
2021/12/06 12:02:54;;;;;;;;;;;;;;;12.38;45.02;98744.78;4456667;32;34233;-85
2021/12/06 12:05:24;;;;;;;;;;;;;;;12.05;45.73;98749.75;4462147;32;32878;-81
2021/12/06 12:08:04;;;;;;;;;;;;;;;12.03;45.68;98754.41;4472566;32;34179;-81
2021/12/06 12:10:36;;;;;;;;;;;;;;;11.75;47.23;98736.56;4478026;32;34246;-80
2021/12/06 12:13:06;;;;;;;;;;;;;;;12.31;45.73;98739.16;4475420;32;35076;-80
2021/12/06 12:15:34;;;;;;;;;;;;;;;12.73;45.00;98733.25;4451948;32;32618;-81
2021/12/06 12:18:02;;;;;;;;;;;;;;;11.80;46.46;98727.09;4465066;32;33797;-80
2021/12/06 12:20:50;;;;;;;;;;;;;;;12.66;44.53;98729.47;4463922;32;33818;-78
2021/12/06 12:23:18;;;;;;;;;;;;;;;12.44;45.26;98717.34;4473808;32;34294;-77
2021/12/06 12:26:00;;;;;;;;;;;;;;;12.60;44.73;98719.34;4441208;32;33613;-77
2021/12/06 12:28:35;;;;;;;;;;;;;;;12.38;45.29;98717.94;4459913;32;34166;-75
2021/12/06 12:31:04;;;;;;;;;;;;;;;12.22;46.16;98709.72;4467614;32;34161;-74
2021/12/06 12:33:32;;;;;;;;;;;;;;;11.96;46.01;98702.38;4476849;32;34132;-76
2021/12/06 12:36:09;;;;;;;;;;;;;;;11.26;48.79;98709.09;4457151;32;33783;-74
2021/12/06 12:38:38;;;;;;;;;;;;;;;12.46;45.45;98710.00;4466351;32;34278;-76
2021/12/06 12:41:07;;;;;;;;;;;;;;;12.61;44.35;98710.28;4453340;32;35541;-76
2021/12/06 12:43:39;;;;;;;;;;;;;;;13.04;43.48;98706.00;4467859;32;35370;-74
2021/12/06 12:46:10;;;;;;;;;;;;;;;12.47;45.25;98706.31;4468189;32;33256;-74
2021/12/06 12:49:04;;;;;;;;;;;;;;;12.61;44.33;98702.25;4469269;32;33979;-75
2021/12/06 12:51:32;;;;;;;;;;;;;;;12.56;44.63;98709.94;4449202;32;33158;-76
2021/12/06 12:54:07;;;;;;;;;;;;;;;12.78;44.97;98719.38;4466204;32;35346;-75
2021/12/06 12:56:42;;;;;;;;;;;;;;;13.05;43.71;98710.38;4448675;32;33526;-75
2021/12/06 12:59:16;;;;;;;;;;;;;;;11.82;46.48;98718.94;4455751;32;33993;-76
2021/12/06 13:01:46;;;;;;;;;;;;;;;12.12;45.60;98707.94;4456091;32;34339;-76
2021/12/06 13:04:14;;;;;;;;;;;;;;;12.37;45.60;98718.13;4442371;32;34346;-75
2021/12/06 13:06:41;;;;;;;;;;;;;;;12.39;45.59;98721.47;4467393;32;34161;-76
2021/12/06 13:09:18;;;;;;;;;;;;;;;13.16;43.50;98722.69;4467406;32;33941;-75